sensor_id;sensor_type;location;lat;lon;timestamp;pressure;altitude;pressure_sealevel;temperature
50206;BMP280;36098;48.390;10.856;2022-07-29T00:00:42;96037.72;;;27.41
50206;BMP280;36098;48.390;10.856;2022-07-29T00:03:10;96027.75;;;27.46
50206;BMP280;36098;48.390;10.856;2022-07-29T00:05:35;96014.50;;;27.46
50206;BMP280;36098;48.390;10.856;2022-07-29T00:08:01;95999.78;;;27.40
50206;BMP280;36098;48.390;10.856;2022-07-29T00:10:26;95980.75;;;27.38
50206;BMP280;36098;48.390;10.856;2022-07-29T00:12:51;95952.75;;;27.46
50206;BMP280;36098;48.390;10.856;2022-07-29T00:15:16;95923.56;;;27.46
50206;BMP280;36098;48.390;10.856;2022-07-29T00:17:42;95918.28;;;27.46
50206;BMP280;36098;48.390;10.856;2022-07-29T00:20:07;95918.88;;;27.43
50206;BMP280;36098;48.390;10.856;2022-07-29T00:22:37;95934.59;;;27.39
50206;BMP280;36098;48.390;10.856;2022-07-29T00:25:03;95942.34;;;27.49
50206;BMP280;36098;48.390;10.856;2022-07-29T00:27:28;95952.94;;;27.49
50206;BMP280;36098;48.390;10.856;2022-07-29T00:29:53;95945.56;;;27.46
50206;BMP280;36098;48.390;10.856;2022-07-29T00:32:19;95952.94;;;27.49
50206;BMP280;36098;48.390;10.856;2022-07-29T00:34:44;95949.78;;;27.47
50206;BMP280;36098;48.390;10.856;2022-07-29T00:37:28;95949.91;;;27.42
50206;BMP280;36098;48.390;10.856;2022-07-29T00:39:53;95951.66;;;27.47
50206;BMP280;36098;48.390;10.856;2022-07-29T00:42:19;95930.13;;;27.48
50206;BMP280;36098;48.390;10.856;2022-07-29T00:44:44;95946.16;;;27.43
50206;BMP280;36098;48.390;10.856;2022-07-29T00:47:10;95943.50;;;27.43
50206;BMP280;36098;48.390;10.856;2022-07-29T00:49:36;95947.72;;;27.44
50206;BMP280;36098;48.390;10.856;2022-07-29T00:52:04;95936.50;;;27.47
50206;BMP280;36098;48.390;10.856;2022-07-29T00:54:30;95945.69;;;27.41
50206;BMP280;36098;48.390;10.856;2022-07-29T00:56:58;95949.91;;;27.42
50206;BMP280;36098;48.390;10.856;2022-07-29T00:59:23;95947.72;;;27.44
50206;BMP280;36098;48.390;10.856;2022-07-29T01:01:48;95953.63;;;27.41
50206;BMP280;36098;48.390;10.856;2022-07-29T01:04:14;95951.47;;;27.43
50206;BMP280;36098;48.390;10.856;2022-07-29T01:06:39;95947.72;;;27.44
50206;BMP280;36098;48.390;10.856;2022-07-29T01:09:05;95945.81;;;27.36
50206;BMP280;36098;48.390;10.856;2022-07-29T01:11:31;95950.53;;;27.26
50206;BMP280;36098;48.390;10.856;2022-07-29T01:13:56;95936.09;;;27.32
50206;BMP280;36098;48.390;10.856;2022-07-29T01:16:28;95929.22;;;27.31
50206;BMP280;36098;48.390;10.856;2022-07-29T01:18:56;95926.34;;;27.41
50206;BMP280;36098;48.390;10.856;2022-07-29T01:30:02;95914.19;;;27.26
50206;BMP280;36098;48.390;10.856;2022-07-29T01:32:29;95913.44;;;27.26
50206;BMP280;36098;48.390;10.856;2022-07-29T01:35:06;95892.03;;;27.22
50206;BMP280;36098;48.390;10.856;2022-07-29T01:37:39;95894.75;;;27.31
50206;BMP280;36098;48.390;10.856;2022-07-29T01:40:14;95894.56;;;27.27
50206;BMP280;36098;48.390;10.856;2022-07-29T01:42:45;95891.25;;;27.22
50206;BMP280;36098;48.390;10.856;2022-07-29T01:48:18;95894.06;;;27.25
50206;BMP280;36098;48.390;10.856;2022-07-29T01:50:56;95913.22;;;27.22
50206;BMP280;36098;48.390;10.856;2022-07-29T01:53:30;95913.22;;;27.22
50206;BMP280;36098;48.390;10.856;2022-07-29T01:55:56;95907.44;;;27.20
50206;BMP280;36098;48.390;10.856;2022-07-29T01:58:22;95902.28;;;27.15
50206;BMP280;36098;48.390;10.856;2022-07-29T02:00:50;95911.19;;;27.19
50206;BMP280;36098;48.390;10.856;2022-07-29T02:03:17;95903.03;;;27.16
50206;BMP280;36098;48.390;10.856;2022-07-29T02:05:45;95901.00;;;27.13
50206;BMP280;36098;48.390;10.856;2022-07-29T02:08:13;95891.06;;;27.18
50206;BMP280;36098;48.390;10.856;2022-07-29T02:10:39;95883.59;;;27.20
50206;BMP280;36098;48.390;10.856;2022-07-29T02:13:07;95882.63;;;27.16
50206;BMP280;36098;48.390;10.856;2022-07-29T02:15:33;95879.09;;;27.21
50206;BMP280;36098;48.390;10.856;2022-07-29T02:18:14;95879.50;;;27.14
50206;BMP280;36098;48.390;10.856;2022-07-29T02:20:44;95890.28;;;27.04
50206;BMP280;36098;48.390;10.856;2022-07-29T02:23:11;95879.19;;;27.16
50206;BMP280;36098;48.390;10.856;2022-07-29T02:25:37;95882.50;;;27.21
50206;BMP280;36098;48.390;10.856;2022-07-29T02:28:05;95879.38;;;27.19
50206;BMP280;36098;48.390;10.856;2022-07-29T02:30:31;95885.88;;;27.13
50206;BMP280;36098;48.390;10.856;2022-07-29T02:32:58;95877.34;;;27.16
50206;BMP280;36098;48.390;10.856;2022-07-29T02:35:24;95887.44;;;27.14
50206;BMP280;36098;48.390;10.856;2022-07-29T02:37:50;95899.13;;;27.13
50206;BMP280;36098;48.390;10.856;2022-07-29T02:40:37;95892.84;;;27.09
50206;BMP280;36098;48.390;10.856;2022-07-29T02:43:05;95884.25;;;26.91
50206;BMP280;36098;48.390;10.856;2022-07-29T02:45:32;95885.78;;;27.05
50206;BMP280;36098;48.390;10.856;2022-07-29T02:47:58;95869.41;;;27.03
50206;BMP280;36098;48.390;10.856;2022-07-29T02:50:32;95883.41;;;27.03
50206;BMP280;36098;48.390;10.856;2022-07-29T02:53:05;95874.88;;;27.06
50206;BMP280;36098;48.390;10.856;2022-07-29T02:55:35;95873.78;;;27.07
50206;BMP280;36098;48.390;10.856;2022-07-29T03:00:50;95881.38;;;27.01
50206;BMP280;36098;48.390;10.856;2022-07-29T03:03:18;95890.75;;;27.06
50206;BMP280;36098;48.390;10.856;2022-07-29T03:05:44;95896.97;;;27.02
50206;BMP280;36098;48.390;10.856;2022-07-29T03:08:11;95892.44;;;27.02
50206;BMP280;36098;48.390;10.856;2022-07-29T03:10:43;95895.22;;;26.98
50206;BMP280;36098;48.390;10.856;2022-07-29T03:13:09;95892.38;;;26.94
50206;BMP280;36098;48.390;10.856;2022-07-29T03:15:35;95901.84;;;27.08
50206;BMP280;36098;48.390;10.856;2022-07-29T03:18:01;95902.75;;;27.04
50206;BMP280;36098;48.390;10.856;2022-07-29T03:20:27;95901.28;;;26.98
50206;BMP280;36098;48.390;10.856;2022-07-29T03:22:52;95906.19;;;27.04
50206;BMP280;36098;48.390;10.856;2022-07-29T03:25:19;95912.56;;;27.03
50206;BMP280;36098;48.390;10.856;2022-07-29T03:27:45;95914.03;;;26.96
50206;BMP280;36098;48.390;10.856;2022-07-29T03:30:11;95909.72;;;27.00
50206;BMP280;36098;48.390;10.856;2022-07-29T03:32:37;95903.94;;;26.98
50206;BMP280;36098;48.390;10.856;2022-07-29T03:35:04;95904.13;;;27.02
50206;BMP280;36098;48.390;10.856;2022-07-29T03:37:29;95903.03;;;27.02
50206;BMP280;36098;48.390;10.856;2022-07-29T03:39:56;95903.03;;;27.02
50206;BMP280;36098;48.390;10.856;2022-07-29T03:42:24;95906.19;;;27.04
50206;BMP280;36098;48.390;10.856;2022-07-29T03:44:51;95918.19;;;27.02
50206;BMP280;36098;48.390;10.856;2022-07-29T03:47:20;95918.84;;;27.07
50206;BMP280;36098;48.390;10.856;2022-07-29T03:49:48;95921.47;;;27.07
50206;BMP280;36098;48.390;10.856;2022-07-29T03:52:15;95908.34;;;27.02
50206;BMP280;36098;48.390;10.856;2022-07-29T03:54:41;95908.22;;;27.07
50206;BMP280;36098;48.390;10.856;2022-07-29T03:57:07;95909.16;;;27.03
50206;BMP280;36098;48.390;10.856;2022-07-29T03:59:33;95918.94;;;27.02
50206;BMP280;36098;48.390;10.856;2022-07-29T04:02:00;95913.84;;;27.06
50206;BMP280;36098;48.390;10.856;2022-07-29T04:04:26;95923.16;;;27.03
50206;BMP280;36098;48.390;10.856;2022-07-29T04:06:51;95924.84;;;27.00
50206;BMP280;36098;48.390;10.856;2022-07-29T04:09:16;95932.78;;;27.00
50206;BMP280;36098;48.390;10.856;2022-07-29T04:11:42;95939.25;;;27.07
50206;BMP280;36098;48.390;10.856;2022-07-29T04:14:07;95939.38;;;27.02
50206;BMP280;36098;48.390;10.856;2022-07-29T04:16:33;95946.81;;;27.00
50206;BMP280;36098;48.390;10.856;2022-07-29T04:18:58;95946.13;;;27.08
50206;BMP280;36098;48.390;10.856;2022-07-29T04:21:24;95931.72;;;27.01
50206;BMP280;36098;48.390;10.856;2022-07-29T04:23:49;95938.22;;;26.95
50206;BMP280;36098;48.390;10.856;2022-07-29T04:26:19;95941.50;;;27.00
50206;BMP280;36098;48.390;10.856;2022-07-29T04:28:45;95946.25;;;27.03
50206;BMP280;36098;48.390;10.856;2022-07-29T04:31:11;95942.31;;;27.01
50206;BMP280;36098;48.390;10.856;2022-07-29T04:33:37;95947.63;;;27.01
50206;BMP280;36098;48.390;10.856;2022-07-29T04:36:02;95950.63;;;27.07
50206;BMP280;36098;48.390;10.856;2022-07-29T04:38:27;95952.91;;;27.01
50206;BMP280;36098;48.390;10.856;2022-07-29T04:40:53;95955.44;;;27.05
50206;BMP280;36098;48.390;10.856;2022-07-29T04:43:18;95952.31;;;27.03
50206;BMP280;36098;48.390;10.856;2022-07-29T04:45:43;95953.28;;;27.07
50206;BMP280;36098;48.390;10.856;2022-07-29T04:48:08;95965.28;;;27.05
50206;BMP280;36098;48.390;10.856;2022-07-29T04:50:34;95963.31;;;26.97
50206;BMP280;36098;48.390;10.856;2022-07-29T04:53:02;95961.06;;;27.04
50206;BMP280;36098;48.390;10.856;2022-07-29T04:55:27;95968.59;;;26.97
50206;BMP280;36098;48.390;10.856;2022-07-29T04:57:53;95964.28;;;26.88
50206;BMP280;36098;48.390;10.856;2022-07-29T05:00:18;95975.88;;;26.65
50206;BMP280;36098;48.390;10.856;2022-07-29T05:02:43;95966.09;;;26.65
50206;BMP280;36098;48.390;10.856;2022-07-29T05:05:08;95971.19;;;26.62
50206;BMP280;36098;48.390;10.856;2022-07-29T05:07:34;95980.59;;;26.54
50206;BMP280;36098;48.390;10.856;2022-07-29T05:09:59;95979.31;;;26.52
50206;BMP280;36098;48.390;10.856;2022-07-29T05:12:25;95985.88;;;26.54
50206;BMP280;36098;48.390;10.856;2022-07-29T05:14:50;95979.47;;;26.42
50206;BMP280;36098;48.390;10.856;2022-07-29T05:17:16;95977.22;;;26.49
50206;BMP280;36098;48.390;10.856;2022-07-29T05:19:41;95979.94;;;26.44
50206;BMP280;36098;48.390;10.856;2022-07-29T05:22:06;95984.09;;;26.50
50206;BMP280;36098;48.390;10.856;2022-07-29T05:24:31;95976.47;;;26.48
50206;BMP280;36098;48.390;10.856;2022-07-29T05:26:57;95977.16;;;26.54
50206;BMP280;36098;48.390;10.856;2022-07-29T05:29:22;95978.16;;;26.58
50206;BMP280;36098;48.390;10.856;2022-07-29T05:31:47;95977.78;;;26.46
50206;BMP280;36098;48.390;10.856;2022-07-29T05:34:12;95989.50;;;26.58
50206;BMP280;36098;48.390;10.856;2022-07-29T05:36:38;95982.25;;;26.64
50206;BMP280;36098;48.390;10.856;2022-07-29T05:39:03;95989.22;;;26.60
50206;BMP280;36098;48.390;10.856;2022-07-29T05:41:31;95992.38;;;26.62
50206;BMP280;36098;48.390;10.856;2022-07-29T05:43:57;95986.84;;;26.58
50206;BMP280;36098;48.390;10.856;2022-07-29T05:46:23;95982.34;;;26.59
50206;BMP280;36098;48.390;10.856;2022-07-29T05:48:48;95981.59;;;26.72
50206;BMP280;36098;48.390;10.856;2022-07-29T05:51:14;95978.16;;;26.58
50206;BMP280;36098;48.390;10.856;2022-07-29T05:53:39;95974.91;;;26.61
50206;BMP280;36098;48.390;10.856;2022-07-29T05:56:05;95974.81;;;26.66
50206;BMP280;36098;48.390;10.856;2022-07-29T05:58:30;95973.13;;;26.56
50206;BMP280;36098;48.390;10.856;2022-07-29T06:00:55;95982.94;;;26.56
50206;BMP280;36098;48.390;10.856;2022-07-29T06:03:24;95968.22;;;26.50
50206;BMP280;36098;48.390;10.856;2022-07-29T06:05:50;95970.59;;;26.51
50206;BMP280;36098;48.390;10.856;2022-07-29T06:08:15;95971.88;;;26.54
50206;BMP280;36098;48.390;10.856;2022-07-29T06:10:40;95972.81;;;26.44
50206;BMP280;36098;48.390;10.856;2022-07-29T06:13:05;95975.28;;;26.54
50206;BMP280;36098;48.390;10.856;2022-07-29T06:15:31;95979.56;;;26.37
50206;BMP280;36098;48.390;10.856;2022-07-29T06:17:56;95993.44;;;26.29
50206;BMP280;36098;48.390;10.856;2022-07-29T06:20:22;95996.41;;;26.27
50206;BMP280;36098;48.390;10.856;2022-07-29T06:22:47;96003.63;;;26.22
50206;BMP280;36098;48.390;10.856;2022-07-29T06:25:12;95995.22;;;26.20
50206;BMP280;36098;48.390;10.856;2022-07-29T06:27:38;95994.72;;;26.18
50206;BMP280;36098;48.390;10.856;2022-07-29T06:30:03;95995.97;;;26.20
50206;BMP280;36098;48.390;10.856;2022-07-29T06:32:31;96001.47;;;26.10
50206;BMP280;36098;48.390;10.856;2022-07-29T06:34:57;95995.38;;;26.10
50206;BMP280;36098;48.390;10.856;2022-07-29T06:37:22;96005.94;;;26.10
50206;BMP280;36098;48.390;10.856;2022-07-29T06:39:47;95995.94;;;26.07
50206;BMP280;36098;48.390;10.856;2022-07-29T06:42:13;95996.88;;;26.16
50206;BMP280;36098;48.390;10.856;2022-07-29T06:44:38;95983.28;;;26.36
50206;BMP280;36098;48.390;10.856;2022-07-29T06:47:04;95991.34;;;26.44
50206;BMP280;36098;48.390;10.856;2022-07-29T06:49:29;95992.91;;;26.45
50206;BMP280;36098;48.390;10.856;2022-07-29T06:51:55;96006.28;;;26.54
50206;BMP280;36098;48.390;10.856;2022-07-29T06:54:20;96002.47;;;26.73
50206;BMP280;36098;48.390;10.856;2022-07-29T06:56:47;96003.66;;;26.67
50206;BMP280;36098;48.390;10.856;2022-07-29T06:59:12;96002.56;;;26.55
50206;BMP280;36098;48.390;10.856;2022-07-29T07:01:42;96002.38;;;26.65
50206;BMP280;36098;48.390;10.856;2022-07-29T07:04:08;96000.41;;;26.84
50206;BMP280;36098;48.390;10.856;2022-07-29T07:06:34;96005.69;;;26.97
50206;BMP280;36098;48.390;10.856;2022-07-29T07:08:59;96007.84;;;27.08
50206;BMP280;36098;48.390;10.856;2022-07-29T07:11:25;96009.06;;;27.16
50206;BMP280;36098;48.390;10.856;2022-07-29T07:13:50;96008.94;;;27.07
50206;BMP280;36098;48.390;10.856;2022-07-29T07:16:16;96016.59;;;27.09
50206;BMP280;36098;48.390;10.856;2022-07-29T07:18:41;96014.75;;;27.09
50206;BMP280;36098;48.390;10.856;2022-07-29T07:21:06;96011.22;;;27.01
50206;BMP280;36098;48.390;10.856;2022-07-29T07:23:31;96009.63;;;27.00
50206;BMP280;36098;48.390;10.856;2022-07-29T07:25:57;96013.38;;;26.99
50206;BMP280;36098;48.390;10.856;2022-07-29T07:28:22;96014.13;;;26.99
50206;BMP280;36098;48.390;10.856;2022-07-29T07:30:48;96014.56;;;26.93
50206;BMP280;36098;48.390;10.856;2022-07-29T07:33:13;96011.09;;;27.05
50206;BMP280;36098;48.390;10.856;2022-07-29T07:35:40;96015.25;;;27.12
50206;BMP280;36098;48.390;10.856;2022-07-29T07:38:05;96002.38;;;27.05
50206;BMP280;36098;48.390;10.856;2022-07-29T07:40:31;96002.97;;;27.02
50206;BMP280;36098;48.390;10.856;2022-07-29T07:42:56;96005.81;;;27.05
50206;BMP280;36098;48.390;10.856;2022-07-29T07:45:22;96004.72;;;27.06
50206;BMP280;36098;48.390;10.856;2022-07-29T07:47:47;96002.50;;;27.13
50206;BMP280;36098;48.390;10.856;2022-07-29T07:50:13;96006.22;;;27.13
50206;BMP280;36098;48.390;10.856;2022-07-29T07:52:52;96006.69;;;26.88
50206;BMP280;36098;48.390;10.856;2022-07-29T07:55:18;96008.25;;;26.89
50206;BMP280;36098;48.390;10.856;2022-07-29T07:57:44;96007.50;;;26.75
50206;BMP280;36098;48.390;10.856;2022-07-29T08:00:12;96001.56;;;27.04
50206;BMP280;36098;48.390;10.856;2022-07-29T08:02:38;96012.09;;;27.09
50206;BMP280;36098;48.390;10.856;2022-07-29T08:05:05;96013.59;;;27.15
50206;BMP280;36098;48.390;10.856;2022-07-29T08:07:30;96015.16;;;27.16
50206;BMP280;36098;48.390;10.856;2022-07-29T08:09:55;96013.47;;;27.20
50206;BMP280;36098;48.390;10.856;2022-07-29T08:12:21;96010.44;;;27.27
50206;BMP280;36098;48.390;10.856;2022-07-29T08:14:46;96012.41;;;27.21
50206;BMP280;36098;48.390;10.856;2022-07-29T08:17:12;96013.97;;;27.22
50206;BMP280;36098;48.390;10.856;2022-07-29T08:19:37;96009.63;;;27.26
50206;BMP280;36098;48.390;10.856;2022-07-29T08:22:03;96014.94;;;27.26
50206;BMP280;36098;48.390;10.856;2022-07-29T08:24:28;96018.66;;;27.25
50206;BMP280;36098;48.390;10.856;2022-07-29T08:27:11;96015.94;;;27.30
50206;BMP280;36098;48.390;10.856;2022-07-29T08:29:37;96018.66;;;27.25
50206;BMP280;36098;48.390;10.856;2022-07-29T08:32:03;96016.63;;;27.22
50206;BMP280;36098;48.390;10.856;2022-07-29T08:34:28;96021.63;;;27.24
50206;BMP280;36098;48.390;10.856;2022-07-29T08:36:57;96022.81;;;27.31
50206;BMP280;36098;48.390;10.856;2022-07-29T08:39:23;96027.59;;;27.29
50206;BMP280;36098;48.390;10.856;2022-07-29T08:41:50;96029.88;;;27.22
50206;BMP280;36098;48.390;10.856;2022-07-29T08:44:16;96034.50;;;27.30
50206;BMP280;36098;48.390;10.856;2022-07-29T08:46:42;96028.88;;;27.32
50206;BMP280;36098;48.390;10.856;2022-07-29T08:49:08;96027.31;;;27.31
50206;BMP280;36098;48.390;10.856;2022-07-29T08:51:35;96026.72;;;27.34
50206;BMP280;36098;48.390;10.856;2022-07-29T08:54:01;96024.53;;;27.36
50206;BMP280;36098;48.390;10.856;2022-07-29T08:56:27;96021.03;;;27.27
50206;BMP280;36098;48.390;10.856;2022-07-29T08:58:53;96031.16;;;27.25
50206;BMP280;36098;48.390;10.856;2022-07-29T09:01:23;96025.44;;;27.31
50206;BMP280;36098;48.390;10.856;2022-07-29T09:03:49;96022.88;;;27.26
50206;BMP280;36098;48.390;10.856;2022-07-29T09:06:17;96022.28;;;27.29
50206;BMP280;36098;48.390;10.856;2022-07-29T09:08:43;96024.84;;;27.34
50206;BMP280;36098;48.390;10.856;2022-07-29T09:11:09;96026.22;;;27.32
50206;BMP280;36098;48.390;10.856;2022-07-29T09:13:36;96038.88;;;27.35
50206;BMP280;36098;48.390;10.856;2022-07-29T09:16:01;96035.25;;;27.31
50206;BMP280;36098;48.390;10.856;2022-07-29T09:18:40;96032.63;;;27.17
50206;BMP280;36098;48.390;10.856;2022-07-29T09:21:08;96029.06;;;26.82
50206;BMP280;36098;48.390;10.856;2022-07-29T09:24:09;96024.75;;;26.86
50206;BMP280;36098;48.390;10.856;2022-07-29T09:26:45;96020.84;;;26.97
50206;BMP280;36098;48.390;10.856;2022-07-29T09:29:15;96028.22;;;27.13
50206;BMP280;36098;48.390;10.856;2022-07-29T09:31:45;96024.56;;;27.22
50206;BMP280;36098;48.390;10.856;2022-07-29T09:34:11;96021.53;;;27.15
50206;BMP280;36098;48.390;10.856;2022-07-29T09:36:42;96019.25;;;27.22
50206;BMP280;36098;48.390;10.856;2022-07-29T09:39:07;96022.59;;;27.28
50206;BMP280;36098;48.390;10.856;2022-07-29T09:41:52;96014.16;;;27.26
50206;BMP280;36098;48.390;10.856;2022-07-29T09:44:21;96017.59;;;27.40
50206;BMP280;36098;48.390;10.856;2022-07-29T09:46:59;96016.22;;;27.29
50206;BMP280;36098;48.390;10.856;2022-07-29T09:49:35;96028.66;;;27.28
50206;BMP280;36098;48.390;10.856;2022-07-29T09:52:03;96024.84;;;27.34
50206;BMP280;36098;48.390;10.856;2022-07-29T09:54:29;96015.03;;;27.35
50206;BMP280;36098;48.390;10.856;2022-07-29T09:56:59;96020.75;;;27.15
50206;BMP280;36098;48.390;10.856;2022-07-29T09:59:24;96025.28;;;27.14
50206;BMP280;36098;48.390;10.856;2022-07-29T10:01:51;96007.84;;;27.08
50206;BMP280;36098;48.390;10.856;2022-07-29T10:04:17;96011.59;;;27.07
50206;BMP280;36098;48.390;10.856;2022-07-29T10:07:00;96017.88;;;26.85
50206;BMP280;36098;48.390;10.856;2022-07-29T10:09:26;96009.81;;;26.76
50206;BMP280;36098;48.390;10.856;2022-07-29T10:12:08;96013.38;;;26.72
50206;BMP280;36098;48.390;10.856;2022-07-29T10:14:38;96016.31;;;26.70
50206;BMP280;36098;48.390;10.856;2022-07-29T10:17:05;96017.00;;;26.76
50206;BMP280;36098;48.390;10.856;2022-07-29T10:19:32;96017.69;;;26.81
50206;BMP280;36098;48.390;10.856;2022-07-29T10:21:59;96013.75;;;26.79
50206;BMP280;36098;48.390;10.856;2022-07-29T10:24:27;96017.69;;;26.81
50206;BMP280;36098;48.390;10.856;2022-07-29T10:26:57;96016.72;;;26.91
50206;BMP280;36098;48.390;10.856;2022-07-29T10:29:24;96015.22;;;26.85
50206;BMP280;36098;48.390;10.856;2022-07-29T10:37:52;96014.97;;;27.48
50206;BMP280;36098;48.390;10.856;2022-07-29T10:40:42;95999.53;;;27.15
50206;BMP280;36098;48.390;10.856;2022-07-29T10:43:32;96002.09;;;27.20
50206;BMP280;36098;48.390;10.856;2022-07-29T10:46:01;95996.84;;;27.28
50206;BMP280;36098;48.390;10.856;2022-07-29T10:48:27;95995.41;;;27.22
50206;BMP280;36098;48.390;10.856;2022-07-29T10:51:00;95990.03;;;27.14
50206;BMP280;36098;48.390;10.856;2022-07-29T10:53:48;95985.59;;;27.09
50206;BMP280;36098;48.390;10.856;2022-07-29T11:01:47;95986.97;;;26.94
50206;BMP280;36098;48.390;10.856;2022-07-29T11:04:13;95979.03;;;26.94
50206;BMP280;36098;48.390;10.856;2022-07-29T11:07:06;95972.81;;;26.98
50206;BMP280;36098;48.390;10.856;2022-07-29T11:09:33;95975.56;;;27.06
50206;BMP280;36098;48.390;10.856;2022-07-29T11:11:58;95980.22;;;27.14
50206;BMP280;36098;48.390;10.856;2022-07-29T11:17:17;95972.34;;;26.96
50206;BMP280;36098;48.390;10.856;2022-07-29T11:19:43;95961.94;;;27.00
50206;BMP280;36098;48.390;10.856;2022-07-29T11:22:10;95965.41;;;27.13
50206;BMP280;36098;48.390;10.856;2022-07-29T11:24:37;95961.75;;;26.96
50206;BMP280;36098;48.390;10.856;2022-07-29T11:27:10;95958.44;;;26.91
50206;BMP280;36098;48.390;10.856;2022-07-29T11:29:47;95965.78;;;26.94
50206;BMP280;36098;48.390;10.856;2022-07-29T11:32:14;95964.47;;;27.04
50206;BMP280;36098;48.390;10.856;2022-07-29T11:34:40;95970.66;;;27.00
50206;BMP280;36098;48.390;10.856;2022-07-29T11:39:35;95973.91;;;26.97
50206;BMP280;36098;48.390;10.856;2022-07-29T11:47:33;95973.41;;;26.95
50206;BMP280;36098;48.390;10.856;2022-07-29T11:50:00;95974.50;;;26.94
50206;BMP280;36098;48.390;10.856;2022-07-29T11:52:37;95976.66;;;26.92
50206;BMP280;36098;48.390;10.856;2022-07-29T11:55:09;95971.19;;;27.02
50206;BMP280;36098;48.390;10.856;2022-07-29T11:57:35;95972.53;;;27.00
50206;BMP280;36098;48.390;10.856;2022-07-29T12:00:01;95979.22;;;26.97
50206;BMP280;36098;48.390;10.856;2022-07-29T12:02:38;95973.34;;;27.13
50206;BMP280;36098;48.390;10.856;2022-07-29T12:05:04;95972.88;;;27.12
50206;BMP280;36098;48.390;10.856;2022-07-29T12:07:31;95966.25;;;27.22
50206;BMP280;36098;48.390;10.856;2022-07-29T12:09:57;95967.13;;;27.31
50206;BMP280;36098;48.390;10.856;2022-07-29T12:12:23;95962.50;;;27.23
50206;BMP280;36098;48.390;10.856;2022-07-29T12:14:48;95964.28;;;27.28
50206;BMP280;36098;48.390;10.856;2022-07-29T12:17:30;95954.69;;;27.18
50206;BMP280;36098;48.390;10.856;2022-07-29T12:19:56;95950.47;;;27.17
50206;BMP280;36098;48.390;10.856;2022-07-29T12:22:26;95947.69;;;27.22
50206;BMP280;36098;48.390;10.856;2022-07-29T12:24:52;95947.41;;;27.24
50206;BMP280;36098;48.390;10.856;2022-07-29T12:27:18;95949.50;;;27.13
50206;BMP280;36098;48.390;10.856;2022-07-29T12:29:43;95953.41;;;27.02
50206;BMP280;36098;48.390;10.856;2022-07-29T12:32:09;95949.66;;;27.03
50206;BMP280;36098;48.390;10.856;2022-07-29T12:34:35;95945.75;;;27.14
50206;BMP280;36098;48.390;10.856;2022-07-29T12:37:00;95946.84;;;27.13
50206;BMP280;36098;48.390;10.856;2022-07-29T12:39:26;95948.28;;;27.06
50206;BMP280;36098;48.390;10.856;2022-07-29T12:41:53;95952.50;;;27.07
50206;BMP280;36098;48.390;10.856;2022-07-29T12:44:18;95950.53;;;26.99
50206;BMP280;36098;48.390;10.856;2022-07-29T12:46:43;95953.41;;;27.02
50206;BMP280;36098;48.390;10.856;2022-07-29T12:49:21;95943.78;;;26.93
50206;BMP280;36098;48.390;10.856;2022-07-29T12:51:46;95952.75;;;27.11
50206;BMP280;36098;48.390;10.856;2022-07-29T12:54:14;95948.38;;;27.28
50206;BMP280;36098;48.390;10.856;2022-07-29T12:56:42;95952.31;;;27.03
50206;BMP280;36098;48.390;10.856;2022-07-29T12:59:20;95949.47;;;26.87
50206;BMP280;36098;48.390;10.856;2022-07-29T13:01:47;95947.63;;;27.01
50206;BMP280;36098;48.390;10.856;2022-07-29T13:04:28;95955.94;;;27.07
50206;BMP280;36098;48.390;10.856;2022-07-29T13:07:00;95955.56;;;27.01
50206;BMP280;36098;48.390;10.856;2022-07-29T13:09:37;95953.91;;;26.91
50206;BMP280;36098;48.390;10.856;2022-07-29T13:12:07;95958.03;;;27.11
50206;BMP280;36098;48.390;10.856;2022-07-29T13:14:35;95959.28;;;27.13
50206;BMP280;36098;48.390;10.856;2022-07-29T13:17:02;95960.09;;;27.13
50206;BMP280;36098;48.390;10.856;2022-07-29T13:19:42;95946.53;;;27.15
50206;BMP280;36098;48.390;10.856;2022-07-29T13:22:13;95946.63;;;27.23
50206;BMP280;36098;48.390;10.856;2022-07-29T13:27:10;95956.66;;;27.00
50206;BMP280;36098;48.390;10.856;2022-07-29T13:29:35;95953.69;;;26.88
50206;BMP280;36098;48.390;10.856;2022-07-29T13:32:02;95956.69;;;26.73
50206;BMP280;36098;48.390;10.856;2022-07-29T13:34:27;95958.44;;;26.64
50206;BMP280;36098;48.390;10.856;2022-07-29T13:36:53;95961.47;;;26.57
50206;BMP280;36098;48.390;10.856;2022-07-29T13:39:18;95957.44;;;26.60
50206;BMP280;36098;48.390;10.856;2022-07-29T13:41:44;95950.78;;;26.62
50206;BMP280;36098;48.390;10.856;2022-07-29T13:44:09;95946.25;;;26.63
50206;BMP280;36098;48.390;10.856;2022-07-29T13:46:34;95938.91;;;26.60
50206;BMP280;36098;48.390;10.856;2022-07-29T13:49:00;95928.69;;;26.67
50206;BMP280;36098;48.390;10.856;2022-07-29T13:51:25;95929.59;;;26.62
50206;BMP280;36098;48.390;10.856;2022-07-29T13:53:51;95939.50;;;26.57
50206;BMP280;36098;48.390;10.856;2022-07-29T13:56:16;95943.31;;;26.51
50206;BMP280;36098;48.390;10.856;2022-07-29T13:58:41;95942.13;;;26.43
50206;BMP280;36098;48.390;10.856;2022-07-29T14:01:07;95939.75;;;26.42
50206;BMP280;36098;48.390;10.856;2022-07-29T14:03:32;95937.13;;;26.55
50206;BMP280;36098;48.390;10.856;2022-07-29T14:05:57;95928.41;;;26.82
50206;BMP280;36098;48.390;10.856;2022-07-29T14:08:25;95923.91;;;26.82
50206;BMP280;36098;48.390;10.856;2022-07-29T14:10:50;95923.19;;;26.90
50206;BMP280;36098;48.390;10.856;2022-07-29T14:13:15;95921.59;;;27.02
50206;BMP280;36098;48.390;10.856;2022-07-29T14:15:41;95916.53;;;26.93
50206;BMP280;36098;48.390;10.856;2022-07-29T14:18:06;95914.88;;;26.83
50206;BMP280;36098;48.390;10.856;2022-07-29T14:20:31;95921.91;;;26.88
50206;BMP280;36098;48.390;10.856;2022-07-29T14:22:57;95914.25;;;27.00
50206;BMP280;36098;48.390;10.856;2022-07-29T14:25:23;95914.53;;;26.98
50206;BMP280;36098;48.390;10.856;2022-07-29T14:27:48;95919.75;;;26.90
50206;BMP280;36098;48.390;10.856;2022-07-29T14:30:14;95905.25;;;26.87
50206;BMP280;36098;48.390;10.856;2022-07-29T14:32:39;95911.00;;;27.02
50206;BMP280;36098;48.390;10.856;2022-07-29T14:35:06;95912.69;;;26.99
50206;BMP280;36098;48.390;10.856;2022-07-29T14:37:31;95916.13;;;27.13